Enontekio Airport


Codes: EFET/ENF
Name: Enontekio Airport
City: Enontekio
Country: Finland
Elevation: 1005 ft.

Photos at Enontekio Airport


   Photos courtesy of SpottingLog. You can add your own sightings and photos by signing up for a free trial today.



No photos found.

Weather at Enontekio Airport


Time (UTC)DescriptionTempratureWindCloud coverageVisibilityPressureHumidity
13-Jun-2024 03:00Scattered Clouds9°C0 mph, NE47%10000m1011hPa88%
13-Jun-2024 06:00Light Rain10°C7 mph, SE73%10000m1012hPa83%
13-Jun-2024 09:00Overcast Clouds13°C7 mph, E99%10000m1013hPa65%
13-Jun-2024 12:00Overcast Clouds15°C9 mph, E95%10000m1013hPa56%
13-Jun-2024 15:00Scattered Clouds16°C9 mph, E33%10000m1013hPa50%
13-Jun-2024 18:00Broken Clouds15°C9 mph, E63%10000m1013hPa55%
13-Jun-2024 21:00Overcast Clouds11°C9 mph, E98%10000m1014hPa70%
14-Jun-2024 00:00Overcast Clouds11°C4 mph, E99%10000m1014hPa70%
14-Jun-2024 03:00Overcast Clouds11°C4 mph, E86%10000m1014hPa68%
14-Jun-2024 06:00Broken Clouds15°C4 mph, SE81%10000m1014hPa56%
14-Jun-2024 09:00Broken Clouds17°C7 mph, SE83%10000m1013hPa42%
14-Jun-2024 12:00Overcast Clouds18°C9 mph, SE90%10000m1012hPa38%
14-Jun-2024 15:00Overcast Clouds17°C7 mph, S100%10000m1012hPa48%
14-Jun-2024 18:00Light Rain16°C11 mph, SE78%10000m1012hPa62%
14-Jun-2024 21:00Broken Clouds11°C4 mph, SE52%10000m1013hPa84%
15-Jun-2024 00:00Scattered Clouds10°C2 mph, SE48%10000m1013hPa88%
15-Jun-2024 03:00Broken Clouds12°C4 mph, SE68%10000m1013hPa81%
15-Jun-2024 06:00Light Rain12°C9 mph, S84%10000m1013hPa76%
15-Jun-2024 09:00Light Rain10°C11 mph, S100%10000m1014hPa82%
15-Jun-2024 12:00Light Rain10°C7 mph, S100%10000m1014hPa83%
15-Jun-2024 15:00Overcast Clouds11°C4 mph, S100%10000m1013hPa79%
15-Jun-2024 18:00Overcast Clouds14°C2 mph, S100%10000m1012hPa64%
15-Jun-2024 21:00Overcast Clouds11°C7 mph, S98%10000m1013hPa75%
16-Jun-2024 00:00Overcast Clouds9°C7 mph, S92%10000m1013hPa86%
16-Jun-2024 03:00Scattered Clouds11°C9 mph, S47%10000m1014hPa81%
16-Jun-2024 06:00Scattered Clouds14°C11 mph, S35%10000m1013hPa61%
16-Jun-2024 09:00Clear Sky18°C11 mph, S7%10000m1013hPa44%
16-Jun-2024 12:00Clear Sky19°C11 mph, SW6%10000m1013hPa37%
16-Jun-2024 15:00Few Clouds20°C13 mph, SW19%10000m1012hPa38%
16-Jun-2024 18:00Scattered Clouds16°C11 mph, S50%10000m1013hPa59%
16-Jun-2024 21:00Overcast Clouds14°C11 mph, SW90%10000m1015hPa71%
17-Jun-2024 00:00Overcast Clouds13°C9 mph, S95%10000m1015hPa75%
17-Jun-2024 03:00Overcast Clouds12°C4 mph, S100%10000m1015hPa82%
17-Jun-2024 06:00Light Rain12°C9 mph, SE100%10000m1014hPa83%
17-Jun-2024 09:00Light Rain13°C11 mph, S100%10000m1014hPa88%
17-Jun-2024 12:00Light Rain17°C13 mph, S94%10000m1013hPa64%
17-Jun-2024 15:00Light Rain16°C13 mph, S100%10000m1013hPa72%
17-Jun-2024 18:00Light Rain17°C11 mph, S77%10000m1013hPa64%
17-Jun-2024 21:00Light Rain14°C11 mph, S95%10000m1014hPa83%
18-Jun-2024 00:00Light Rain12°C7 mph, SE97%10000m1014hPa95%